Leonie — PHLE — position and weather

sailwx.info

Track history (hours):
 
Tides and Currents Weather Stations Pressure Air Temp Water Temp Dewpoint Dewpoint Depression Visibility Wind Speed Wind Dir Waves Ship Positions

Leonie

Last reported at 2014-Oct-02 01:09 UTC. Time now 2014-Oct-02 04:37 UTC.
Position N 50°33' E 000°17'.

Length 90 m; draft 5.4 m.

Type: Cargo ship. MMSI: 244772000.

Date/timePositionNaut miles runAvg speedWind from/ knotsBaromVisibWave heightAir tempDewpointWater temp
2014-Oct-02 01:09N 50°33' E 000°17'5 8.9
2014-Oct-02 00:33N 50°35' E 000°24'10 9.5
2014-Oct-01 23:33N 50°40' E 000°37'1110.5
2014-Oct-01 22:34N 50°46' E 000°51'1111.2
2014-Oct-01 21:34N 50°53' E 001°05'1111.0
2014-Oct-01 20:33N 50°60' E 001°18'1010.1
2014-Oct-01 19:33N 51°06' E 001°30'9 8.8
2014-Oct-01 18:34N 51°12' E 001°41'8 8.2
2014-Oct-01 17:33N 51°19' E 001°48'8 8.5
2014-Oct-01 16:34N 51°27' E 001°54'9 9.1
2014-Oct-01 15:33N 51°33' E 002°03'1010.1
2014-Oct-01 14:32N 51°41' E 002°14'14010.0
2014-Oct-01 00:32N 53°28' E 004°43'9 9.4
2014-Sep-30 23:33N 53°32' E 004°57'9 8.9
2014-Sep-30 22:34N 53°35' E 005°11'9 8.7
2014-Sep-30 21:33N 53°38' E 005°25'9 8.8
2014-Sep-30 20:34N 53°40' E 005°39'9 9.3
2014-Sep-30 19:33N 53°44' E 005°54'6310.6
2014-Sep-30 13:33N 54°00' E 007°37'10 9.6
2014-Sep-30 12:33N 54°01' E 007°54'9 9.4
2014-Sep-30 11:33N 54°01' E 008°10'10 9.7
2014-Sep-30 10:33N 53°59' E 008°26'1111.4
2014-Sep-30 09:33N 53°53' E 008°42'1312.7
2014-Sep-30 08:34N 53°52' E 009°04'3 3.2
2014-Sep-30 07:33N 53°54' E 009°09'4 4.0
2014-Sep-30 06:34N 53°57' E 009°14'16 8.1
2014-Sep-30 04:33N 54°11' E 009°28'7 7.3
2014-Sep-30 03:33N 54°15' E 009°37'4 3.9
2014-Sep-30 02:33N 54°18' E 009°42'3 2.8
2014-Sep-30 01:33N 54°20' E 009°45'5 4.8
2014-Sep-30 00:33N 54°21' E 009°53'6 6.2
2014-Sep-29 23:34N 54°22' E 010°03'3 3.0
2014-Sep-29 22:34N 54°22' E 010°08'2 2.3
2014-Sep-29 21:34N 54°23' E 010°12'9 9.4
2014-Sep-29 20:33N 54°31' E 010°21'1010.4
2014-Sep-29 19:34N 54°35' E 010°38'1010.2
2014-Sep-29 18:33N 54°36' E 010°56'10 9.9
2014-Sep-29 17:34N 54°35' E 011°13'10 9.6
2014-Sep-29 16:33N 54°32' E 011°28'1010.3
2014-Sep-29 15:33N 54°29' E 011°45'1110.8
2014-Sep-29 14:34N 54°27' E 012°03'9 9.4
2014-Sep-29 13:34N 54°34' E 012°14'10 9.6
2014-Sep-29 12:34N 54°41' E 012°25'10 9.7
2014-Sep-29 11:34N 54°47' E 012°39'1010.0
2014-Sep-29 10:33N 54°50' E 012°55'1110.7
2014-Sep-29 09:34N 54°54' E 013°13'8 7.6
2014-Sep-29 08:34N 54°56' E 013°25'1010.3
2014-Sep-29 07:33N 55°00' E 013°42'1010.4
2014-Sep-29 06:33N 55°04' E 013°59'1010.1
2014-Sep-29 05:33N 55°11' E 014°12'1010.4
2014-Sep-29 04:33N 55°19' E 014°23'1010.4
2014-Sep-29 03:34N 55°27' E 014°34'1010.4
2014-Sep-29 02:33N 55°33' E 014°50'1010.0
2014-Sep-29 01:34N 55°37' E 015°06'1010.2
2014-Sep-29 00:33N 55°43' E 015°21'1210.1
2014-Sep-28 23:21N 55°49' E 015°40'1810.2
2014-Sep-28 21:33N 55°58' E 016°08'1010.0
2014-Sep-28 20:33N 56°03' E 016°24'5410.2
2014-Sep-28 15:19N 56°50' E 017°11'811.0
2014-Sep-28 14:33N 56°57' E 017°17'1110.8
2014-Sep-28 13:34N 57°07' E 017°25'1110.5
2014-Sep-28 12:33N 57°17' E 017°32'1110.6
2014-Sep-28 11:33N 57°27' E 017°38'  
2014-Sep-22 01:27N 57°24' E 017°47'  
Track history (hours):
 
Tides and Currents Weather Stations Pressure Air Temp Water Temp Dewpoint Dewpoint Depression Visibility Wind Speed Wind Dir Waves Ship Positions

Leonie

Last reported at 2014-Oct-02 01:09 UTC. Time now 2014-Oct-02 04:37 UTC.
Position N 50°33' E 000°17'.

Length 90 m; draft 5.4 m.

Type: Cargo ship. MMSI: 244772000.

Date/timePositionNaut miles runAvg speedWind from/ knotsBaromVisibWave heightAir tempDewpointWater temp
2014-Oct-02 01:09N 50°33' E 000°17'5 8.9
2014-Oct-02 00:33N 50°35' E 000°24'10 9.5
2014-Oct-01 23:33N 50°40' E 000°37'1110.5
2014-Oct-01 22:34N 50°46' E 000°51'1111.2
2014-Oct-01 21:34N 50°53' E 001°05'1111.0
2014-Oct-01 20:33N 50°60' E 001°18'1010.1
2014-Oct-01 19:33N 51°06' E 001°30'9 8.8
2014-Oct-01 18:34N 51°12' E 001°41'8 8.2
2014-Oct-01 17:33N 51°19' E 001°48'8 8.5
2014-Oct-01 16:34N 51°27' E 001°54'9 9.1
2014-Oct-01 15:33N 51°33' E 002°03'1010.1
2014-Oct-01 14:32N 51°41' E 002°14'14010.0
2014-Oct-01 00:32N 53°28' E 004°43'9 9.4
2014-Sep-30 23:33N 53°32' E 004°57'9 8.9
2014-Sep-30 22:34N 53°35' E 005°11'9 8.7
2014-Sep-30 21:33N 53°38' E 005°25'9 8.8
2014-Sep-30 20:34N 53°40' E 005°39'9 9.3
2014-Sep-30 19:33N 53°44' E 005°54'6310.6
2014-Sep-30 13:33N 54°00' E 007°37'10 9.6
2014-Sep-30 12:33N 54°01' E 007°54'9 9.4
2014-Sep-30 11:33N 54°01' E 008°10'10 9.7
2014-Sep-30 10:33N 53°59' E 008°26'1111.4
2014-Sep-30 09:33N 53°53' E 008°42'1312.7
2014-Sep-30 08:34N 53°52' E 009°04'3 3.2
2014-Sep-30 07:33N 53°54' E 009°09'4 4.0
2014-Sep-30 06:34N 53°57' E 009°14'16 8.1
2014-Sep-30 04:33N 54°11' E 009°28'7 7.3
2014-Sep-30 03:33N 54°15' E 009°37'4 3.9
2014-Sep-30 02:33N 54°18' E 009°42'3 2.8
2014-Sep-30 01:33N 54°20' E 009°45'5 4.8
2014-Sep-30 00:33N 54°21' E 009°53'6 6.2
2014-Sep-29 23:34N 54°22' E 010°03'3 3.0
2014-Sep-29 22:34N 54°22' E 010°08'2 2.3
2014-Sep-29 21:34N 54°23' E 010°12'9 9.4
2014-Sep-29 20:33N 54°31' E 010°21'1010.4
2014-Sep-29 19:34N 54°35' E 010°38'1010.2
2014-Sep-29 18:33N 54°36' E 010°56'10 9.9
2014-Sep-29 17:34N 54°35' E 011°13'10 9.6
2014-Sep-29 16:33N 54°32' E 011°28'1010.3
2014-Sep-29 15:33N 54°29' E 011°45'1110.8
2014-Sep-29 14:34N 54°27' E 012°03'9 9.4
2014-Sep-29 13:34N 54°34' E 012°14'10 9.6
2014-Sep-29 12:34N 54°41' E 012°25'10 9.7
2014-Sep-29 11:34N 54°47' E 012°39'1010.0
2014-Sep-29 10:33N 54°50' E 012°55'1110.7
2014-Sep-29 09:34N 54°54' E 013°13'8 7.6
2014-Sep-29 08:34N 54°56' E 013°25'1010.3
2014-Sep-29 07:33N 55°00' E 013°42'1010.4
2014-Sep-29 06:33N 55°04' E 013°59'1010.1
2014-Sep-29 05:33N 55°11' E 014°12'1010.4
2014-Sep-29 04:33N 55°19' E 014°23'1010.4
2014-Sep-29 03:34N 55°27' E 014°34'1010.4
2014-Sep-29 02:33N 55°33' E 014°50'1010.0
2014-Sep-29 01:34N 55°37' E 015°06'1010.2
2014-Sep-29 00:33N 55°43' E 015°21'1210.1
2014-Sep-28 23:21N 55°49' E 015°40'1810.2
2014-Sep-28 21:33N 55°58' E 016°08'1010.0
2014-Sep-28 20:33N 56°03' E 016°24'5410.2
2014-Sep-28 15:19N 56°50' E 017°11'811.0
2014-Sep-28 14:33N 56°57' E 017°17'1110.8
2014-Sep-28 13:34N 57°07' E 017°25'1110.5
2014-Sep-28 12:33N 57°17' E 017°32'1110.6
2014-Sep-28 11:33N 57°27' E 017°38'  
2014-Sep-22 01:27N 57°24' E 017°47'  

Dump ship's entire track history